createdAt,value
2022-12-17T00:00:28.222Z,77.24
2022-12-17T00:03:17.505Z,77.54
2022-12-17T00:06:02.945Z,77.55
2022-12-17T00:08:48.324Z,77.91
2022-12-17T00:11:33.113Z,77.81
2022-12-17T00:14:17.776Z,78.06
2022-12-17T00:17:02.596Z,77.57
2022-12-17T00:19:47.383Z,77.43
2022-12-17T00:22:32.201Z,77.29
2022-12-17T00:25:17.240Z,77.43
2022-12-17T00:28:01.957Z,77.26
2022-12-17T00:30:46.766Z,77.56
2022-12-17T00:33:31.591Z,76.98
2022-12-17T00:36:16.283Z,77.25
2022-12-17T00:39:01.624Z,77.14
2022-12-17T00:41:46.606Z,77.07
2022-12-17T00:44:31.706Z,76.92
2022-12-17T00:47:16.464Z,76.85
2022-12-17T00:50:01.295Z,77.01
2022-12-17T00:52:46.004Z,77.04
2022-12-17T00:55:30.684Z,76.66
2022-12-17T00:58:15.998Z,76.61
2022-12-17T01:01:01.898Z,76.81
2022-12-17T01:03:47.584Z,76.36
2022-12-17T01:06:32.365Z,76.52
2022-12-17T01:09:17.009Z,76.76
2022-12-17T01:12:02.193Z,76.52
2022-12-17T01:14:46.939Z,76.53
2022-12-17T01:17:31.630Z,76.42
2022-12-17T01:20:16.570Z,76.53
2022-12-17T01:23:03.944Z,76.29
2022-12-17T01:25:48.703Z,76.44
2022-12-17T01:28:40.289Z,76.55
2022-12-17T01:31:26.600Z,76.46
2022-12-17T01:34:13.886Z,76.64
2022-12-17T01:36:58.711Z,76.41
2022-12-17T01:39:43.536Z,76.19
2022-12-17T01:42:31.815Z,76.15
2022-12-17T01:45:17.427Z,76.26
2022-12-17T01:48:21.369Z,75.54
2022-12-17T01:51:13.134Z,76.07
2022-12-17T01:54:06.331Z,76.13
2022-12-17T01:56:53.240Z,76.20
2022-12-17T01:59:45.706Z,76.20
2022-12-17T02:02:30.812Z,76.65
2022-12-17T02:05:16.030Z,76.78
2022-12-17T02:08:19.680Z,76.93
2022-12-17T02:11:19.087Z,76.10
2022-12-17T02:14:26.898Z,76.56
2022-12-17T02:17:18.939Z,76.20
2022-12-17T02:20:22.847Z,76.38
2022-12-17T02:23:29.412Z,76.75
2022-12-17T02:26:25.257Z,76.86
2022-12-17T02:29:11.057Z,76.23
2022-12-17T02:32:03.008Z,76.00
2022-12-17T02:34:47.740Z,76.19
2022-12-17T02:37:33.036Z,76.21
2022-12-17T02:40:18.427Z,75.77
2022-12-17T02:43:12.686Z,75.80
2022-12-17T02:45:58.390Z,75.29
2022-12-17T02:48:44.138Z,75.45
2022-12-17T02:51:30.396Z,75.51
2022-12-17T02:54:15.302Z,75.53
2022-12-17T02:57:00.138Z,75.62
2022-12-17T02:59:44.946Z,75.37
2022-12-17T03:02:30.043Z,75.25
2022-12-17T03:05:43.589Z,75.26
2022-12-17T03:08:20.048Z,76.05
2022-12-17T03:11:04.934Z,75.38
2022-12-17T03:13:49.780Z,75.62
2022-12-17T03:16:38.069Z,75.82
2022-12-17T03:19:23.729Z,75.50
2022-12-17T03:22:08.445Z,75.53
2022-12-17T03:24:53.143Z,75.38
2022-12-17T03:27:37.875Z,75.64
2022-12-17T03:30:23.194Z,75.50
2022-12-17T03:33:07.858Z,75.76
2022-12-17T03:35:52.660Z,75.95
2022-12-17T03:38:37.356Z,76.33
2022-12-17T03:41:22.011Z,76.19
2022-12-17T03:44:06.766Z,75.25
2022-12-17T03:46:51.415Z,75.64
2022-12-17T03:49:36.106Z,75.37
2022-12-17T03:52:21.873Z,75.58
2022-12-17T03:55:06.605Z,75.32
2022-12-17T03:57:51.364Z,75.39
2022-12-17T04:00:36.286Z,75.49
2022-12-17T04:03:21.073Z,75.00
2022-12-17T04:06:05.881Z,74.92
2022-12-17T04:08:50.609Z,75.21
2022-12-17T04:11:35.498Z,75.22
2022-12-17T04:14:20.197Z,74.93
2022-12-17T04:17:05.012Z,74.89
2022-12-17T04:19:49.702Z,75.13
2022-12-17T04:22:34.412Z,75.07
2022-12-17T04:25:19.332Z,75.02
2022-12-17T04:28:04.527Z,74.81
2022-12-17T04:30:49.428Z,75.02
2022-12-17T04:33:34.553Z,75.23
2022-12-17T04:36:19.678Z,75.27
2022-12-17T04:39:04.368Z,74.93
2022-12-17T04:41:49.287Z,74.56
2022-12-17T04:44:34.118Z,74.75
2022-12-17T04:47:19.309Z,74.47
2022-12-17T04:50:04.031Z,73.89
2022-12-17T04:52:48.817Z,73.25
2022-12-17T04:55:34.009Z,73.39
2022-12-17T04:58:23.990Z,72.65
2022-12-17T05:01:12.804Z,72.41
2022-12-17T05:03:58.995Z,72.55
2022-12-17T05:06:44.558Z,72.07
2022-12-17T05:09:29.389Z,72.03
2022-12-17T05:12:14.169Z,71.95
2022-12-17T05:14:58.916Z,72.01
2022-12-17T05:17:43.755Z,71.85
2022-12-17T05:20:29.110Z,71.44
2022-12-17T05:23:13.888Z,71.91
2022-12-17T05:25:58.791Z,72.31
2022-12-17T05:28:43.475Z,71.92
2022-12-17T05:31:28.366Z,71.15
2022-12-17T05:34:13.240Z,71.78
2022-12-17T05:36:58.053Z,71.73
2022-12-17T05:39:42.831Z,71.82
2022-12-17T05:42:27.501Z,72.11
2022-12-17T05:45:12.144Z,71.64
2022-12-17T05:47:56.911Z,71.99
2022-12-17T05:50:41.601Z,71.98
2022-12-17T05:53:27.754Z,71.83
2022-12-17T05:56:12.607Z,71.86
2022-12-17T05:58:58.226Z,71.71
2022-12-17T06:01:43.553Z,71.63
2022-12-17T06:04:29.080Z,71.57
2022-12-17T06:07:13.794Z,71.43
2022-12-17T06:09:58.536Z,71.15
2022-12-17T06:12:43.329Z,71.06
2022-12-17T06:15:28.872Z,70.83
2022-12-17T06:18:17.046Z,70.99
2022-12-17T06:21:02.494Z,70.81
2022-12-17T06:23:47.399Z,71.26
2022-12-17T06:26:32.367Z,70.67
2022-12-17T06:29:17.065Z,70.26
2022-12-17T06:32:01.792Z,69.91
2022-12-17T06:34:46.439Z,70.18
2022-12-17T06:37:31.576Z,70.16
2022-12-17T06:40:16.319Z,70.41
2022-12-17T06:43:11.142Z,70.05
2022-12-17T06:45:55.903Z,69.31
2022-12-17T06:48:40.572Z,69.41
2022-12-17T06:51:25.412Z,69.05
2022-12-17T06:54:09.968Z,69.47
2022-12-17T06:56:54.635Z,69.19
2022-12-17T06:59:39.303Z,69.90
2022-12-17T07:02:24.544Z,69.52
2022-12-17T07:05:09.567Z,69.16
2022-12-17T07:07:54.848Z,68.55
2022-12-17T07:10:41.918Z,68.34
2022-12-17T07:13:27.652Z,68.29
2022-12-17T07:16:13.340Z,68.66
2022-12-17T07:18:58.666Z,68.14
2022-12-17T07:21:43.960Z,68.57
2022-12-17T07:24:29.265Z,68.68
2022-12-17T07:27:14.118Z,68.39
2022-12-17T07:29:58.871Z,68.56
2022-12-17T07:32:43.616Z,68.88
2022-12-17T07:35:28.327Z,68.15
2022-12-17T07:38:20.857Z,68.50
2022-12-17T07:41:05.640Z,68.08
2022-12-17T07:43:53.218Z,67.95
2022-12-17T07:46:39.053Z,68.26
2022-12-17T07:49:26.124Z,68.27
2022-12-17T07:52:12.036Z,67.95
2022-12-17T07:54:56.798Z,68.23
2022-12-17T07:57:41.541Z,67.82
2022-12-17T08:00:26.807Z,67.83
2022-12-17T08:03:18.853Z,68.01
2022-12-17T08:06:04.190Z,68.22
2022-12-17T08:08:49.093Z,68.07
2022-12-17T08:11:33.773Z,68.18
2022-12-17T08:14:18.549Z,68.62
2022-12-17T08:17:03.397Z,68.84
2022-12-17T08:19:48.085Z,67.80
2022-12-17T08:22:32.896Z,68.54
2022-12-17T08:25:18.688Z,68.48
2022-12-17T08:28:41.598Z,68.17
2022-12-17T08:31:26.185Z,68.21
2022-12-17T08:34:14.600Z,67.93
2022-12-17T08:36:59.425Z,68.06
2022-12-17T08:39:44.607Z,68.28
2022-12-17T08:42:29.360Z,68.09
2022-12-17T08:45:14.160Z,68.10
2022-12-17T08:48:03.912Z,68.05
2022-12-17T08:50:49.077Z,68.46
2022-12-17T08:53:35.205Z,67.84
2022-12-17T08:56:20.655Z,68.16
2022-12-17T08:59:05.463Z,67.73
2022-12-17T09:01:50.418Z,67.74
2022-12-17T09:04:35.441Z,67.17
2022-12-17T09:07:20.319Z,67.46
2022-12-17T09:10:05.145Z,67.57
2022-12-17T09:12:49.884Z,67.73
2022-12-17T09:15:48.326Z,67.94
2022-12-17T09:18:37.674Z,68.09
2022-12-17T09:21:22.974Z,67.96
2022-12-17T09:24:08.680Z,68.72
2022-12-17T09:26:53.960Z,68.44
2022-12-17T09:29:38.580Z,68.87
2022-12-17T09:32:23.833Z,68.59
2022-12-17T09:35:08.416Z,68.17
2022-12-17T09:37:53.187Z,67.58
2022-12-17T09:40:42.410Z,67.78
2022-12-17T09:43:54.925Z,67.59
2022-12-17T09:46:54.869Z,68.21
2022-12-17T09:49:44.159Z,68.20
2022-12-17T09:52:44.435Z,68.52
2022-12-17T09:55:39.557Z,68.38
2022-12-17T09:58:24.859Z,68.27
2022-12-17T10:01:12.187Z,68.65
2022-12-17T10:03:58.944Z,68.32
2022-12-17T10:06:46.952Z,68.40
2022-12-17T10:09:33.817Z,68.74
2022-12-17T10:12:30.679Z,68.53
2022-12-17T10:15:15.492Z,68.64
2022-12-17T10:18:00.295Z,68.66
2022-12-17T10:20:52.209Z,68.25
2022-12-17T10:23:48.211Z,68.07
2022-12-17T10:26:48.236Z,67.91
2022-12-17T10:29:47.382Z,68.01
2022-12-17T10:32:33.265Z,67.61
2022-12-17T10:35:19.556Z,67.95
2022-12-17T10:38:04.228Z,68.56
2022-12-17T10:40:51.166Z,68.13
2022-12-17T10:43:50.784Z,68.60
2022-12-17T10:46:50.773Z,67.83
2022-12-17T10:49:38.284Z,68.01
2022-12-17T10:52:35.333Z,68.92
2022-12-17T10:55:23.642Z,68.02
2022-12-17T10:58:10.798Z,68.01
2022-12-17T11:00:58.387Z,67.90
2022-12-17T11:03:45.321Z,67.72
2022-12-17T11:06:37.522Z,67.63
2022-12-17T11:09:35.052Z,66.51
2022-12-17T11:12:28.659Z,67.16
2022-12-17T11:15:21.236Z,67.59
2022-12-17T11:18:11.547Z,67.46
2022-12-17T11:21:13.317Z,67.54
2022-12-17T11:24:02.740Z,68.40
2022-12-17T11:26:53.577Z,68.28
2022-12-17T11:29:38.286Z,67.34
2022-12-17T11:32:26.144Z,68.20
2022-12-17T11:35:50.039Z,67.85
2022-12-17T11:38:51.383Z,67.96
2022-12-17T11:41:55.732Z,67.46
2022-12-17T11:45:06.915Z,66.46
2022-12-17T11:48:05.665Z,66.49
2022-12-17T11:50:55.449Z,65.71
2022-12-17T11:53:47.879Z,66.37
2022-12-17T11:57:02.495Z,67.22
2022-12-17T11:59:57.149Z,67.05
2022-12-17T12:03:18.918Z,67.22
2022-12-17T12:06:22.044Z,66.54
2022-12-17T12:09:28.454Z,66.86
2022-12-17T12:12:39.529Z,66.92
2022-12-17T12:15:47.686Z,66.65
2022-12-17T12:18:56.569Z,65.91
2022-12-17T12:21:57.963Z,66.33
2022-12-17T12:24:42.699Z,66.13
2022-12-17T12:27:43.031Z,65.81
2022-12-17T12:30:36.498Z,65.67
2022-12-17T12:34:15.322Z,65.97
2022-12-17T12:37:02.363Z,66.79
2022-12-17T12:39:55.788Z,66.93
2022-12-17T12:42:57.681Z,66.84
2022-12-17T12:45:54.173Z,66.77
2022-12-17T12:49:02.147Z,66.93
2022-12-17T12:51:52.522Z,66.68
2022-12-17T12:55:05.756Z,66.93
2022-12-17T12:57:55.310Z,65.61
2022-12-17T13:01:00.321Z,66.27
2022-12-17T13:03:52.092Z,66.19
2022-12-17T13:06:45.531Z,66.78
2022-12-17T13:09:17.462Z,65.78
2022-12-17T13:11:49.947Z,66.99
2022-12-17T13:14:21.475Z,67.01
2022-12-17T13:16:47.800Z,66.85
2022-12-17T13:19:38.587Z,66.79
2022-12-17T13:22:23.797Z,66.04
2022-12-17T13:24:53.378Z,66.20
2022-12-17T13:27:39.186Z,66.73
2022-12-17T13:30:17.709Z,66.54
2022-12-17T13:33:08.319Z,66.03
2022-12-17T13:35:46.850Z,66.76
2022-12-17T13:38:31.913Z,67.18
2022-12-17T13:41:10.493Z,67.49
2022-12-17T13:43:43.620Z,66.69
2022-12-17T13:46:47.513Z,67.43
2022-12-17T13:49:24.497Z,66.55
2022-12-17T13:52:17.434Z,66.44
2022-12-17T13:54:44.073Z,67.02
2022-12-17T13:57:16.186Z,66.37
2022-12-17T13:59:50.036Z,67.23
2022-12-17T14:02:23.913Z,66.86
2022-12-17T14:04:56.280Z,67.42
2022-12-17T14:07:26.393Z,67.22
2022-12-17T14:09:53.517Z,66.80
2022-12-17T14:12:26.086Z,67.30
2022-12-17T14:14:56.983Z,67.41
2022-12-17T14:17:50.020Z,67.56
2022-12-17T14:20:26.481Z,66.94
2022-12-17T14:23:01.404Z,67.78
2022-12-17T14:25:35.934Z,67.81
2022-12-17T14:28:20.085Z,66.81
2022-12-17T14:31:24.512Z,67.75
2022-12-17T14:33:37.788Z,67.95
2022-12-17T14:36:16.311Z,67.64
2022-12-17T14:39:01.720Z,68.18
2022-12-17T14:41:53.777Z,67.54
2022-12-17T14:44:24.168Z,67.16
2022-12-17T14:46:54.444Z,66.98
2022-12-17T14:49:22.276Z,66.96
2022-12-17T14:51:50.048Z,67.50
2022-12-17T14:54:32.167Z,66.66
2022-12-17T14:56:59.935Z,66.31
2022-12-17T14:59:33.554Z,67.33
2022-12-17T15:02:04.324Z,67.50
2022-12-17T15:04:32.398Z,67.82
2022-12-17T15:06:59.119Z,67.73
2022-12-17T15:09:25.597Z,68.31
2022-12-17T15:11:51.922Z,68.10
2022-12-17T15:14:18.332Z,68.66
2022-12-17T15:16:45.974Z,67.83
2022-12-17T15:19:12.371Z,68.92
2022-12-17T15:21:38.728Z,69.31
2022-12-17T15:24:06.991Z,69.04
2022-12-17T15:26:33.294Z,68.83
2022-12-17T15:28:59.699Z,68.92
2022-12-17T15:31:29.475Z,68.54
2022-12-17T15:33:58.694Z,69.35
2022-12-17T15:36:25.305Z,68.66
2022-12-17T15:38:51.767Z,68.55
2022-12-17T15:41:36.744Z,68.91
2022-12-17T15:44:03.147Z,68.54
2022-12-17T15:46:30.132Z,68.19
2022-12-17T15:48:56.866Z,67.96
2022-12-17T15:51:23.576Z,68.09
2022-12-17T15:53:51.125Z,68.13
2022-12-17T15:56:24.113Z,67.78
2022-12-17T15:58:50.510Z,68.16
2022-12-17T16:01:18.540Z,68.15
2022-12-17T16:03:45.016Z,68.04
2022-12-17T16:06:12.104Z,68.15
2022-12-17T16:08:40.589Z,68.49
2022-12-17T16:11:09.192Z,68.04
2022-12-17T16:13:37.012Z,67.25
2022-12-17T16:16:06.382Z,66.94
2022-12-17T16:18:33.157Z,67.86
2022-12-17T16:21:04.139Z,67.02
2022-12-17T16:23:30.500Z,67.23
2022-12-17T16:26:02.203Z,67.15
2022-12-17T16:28:29.890Z,67.33
2022-12-17T16:31:06.022Z,66.65
2022-12-17T16:33:35.704Z,67.12
2022-12-17T16:36:02.984Z,66.39
2022-12-17T16:38:29.346Z,66.74
2022-12-17T16:41:00.717Z,67.68
2022-12-17T16:43:28.414Z,67.19
2022-12-17T16:45:54.961Z,66.80
2022-12-17T16:48:22.360Z,66.81
2022-12-17T16:50:49.961Z,66.63
2022-12-17T16:53:17.695Z,66.31
2022-12-17T16:55:46.160Z,67.07
2022-12-17T16:58:13.799Z,67.26
2022-12-17T17:00:40.805Z,65.71
2022-12-17T17:03:08.608Z,66.31
2022-12-17T17:05:39.755Z,66.67
2022-12-17T17:08:06.806Z,66.66
2022-12-17T17:10:35.695Z,66.31
2022-12-17T17:13:02.260Z,65.78
2022-12-17T17:15:28.745Z,66.29
2022-12-17T17:18:01.547Z,65.77
2022-12-17T17:20:31.945Z,65.58
2022-12-17T17:22:58.426Z,65.75
2022-12-17T17:25:31.092Z,65.16
2022-12-17T17:28:10.475Z,65.21
2022-12-17T17:30:36.801Z,65.85
2022-12-17T17:33:03.172Z,65.19
2022-12-17T17:35:29.502Z,65.30
2022-12-17T17:37:55.810Z,65.20
2022-12-17T17:40:22.161Z,65.60
2022-12-17T17:42:51.704Z,64.58
2022-12-17T17:45:19.808Z,64.50
2022-12-17T17:47:46.255Z,65.20
2022-12-17T17:50:12.638Z,65.23
2022-12-17T17:52:38.959Z,64.99
2022-12-17T17:55:06.020Z,65.22
2022-12-17T17:57:32.405Z,64.23
2022-12-17T17:59:58.781Z,64.67
2022-12-17T18:02:25.240Z,64.30
2022-12-17T18:04:51.819Z,64.70
2022-12-17T18:07:26.674Z,63.89
2022-12-17T18:09:54.085Z,64.70
2022-12-17T18:12:39.153Z,64.97
2022-12-17T18:15:14.250Z,65.67
2022-12-17T18:17:41.488Z,64.44
2022-12-17T18:20:09.488Z,64.25
2022-12-17T18:22:35.841Z,64.55
2022-12-17T18:25:02.177Z,64.67
2022-12-17T18:27:28.492Z,64.03
2022-12-17T18:29:54.814Z,63.56
2022-12-17T18:32:21.178Z,64.33
2022-12-17T18:34:47.600Z,64.32
2022-12-17T18:37:13.998Z,63.74
2022-12-17T18:39:40.343Z,64.01
2022-12-17T18:42:25.273Z,63.46
2022-12-17T18:44:51.571Z,64.04
2022-12-17T18:47:18.903Z,64.30
2022-12-17T18:49:45.340Z,64.48
2022-12-17T18:52:16.435Z,64.14
2022-12-17T18:54:43.469Z,64.95
2022-12-17T18:57:09.899Z,64.92
2022-12-17T18:59:37.314Z,65.27
2022-12-17T19:02:03.902Z,65.05
2022-12-17T19:04:30.397Z,65.46
2022-12-17T19:06:56.809Z,65.38
2022-12-17T19:09:27.760Z,64.65
2022-12-17T19:11:55.126Z,64.74
2022-12-17T19:14:23.158Z,65.22
2022-12-17T19:16:51.066Z,64.63
2022-12-17T19:19:18.396Z,64.74
2022-12-17T19:21:45.046Z,64.66
2022-12-17T19:24:14.746Z,64.88
2022-12-17T19:26:42.001Z,65.21
2022-12-17T19:29:10.486Z,65.42
2022-12-17T19:31:37.266Z,65.52
2022-12-17T19:34:06.609Z,65.95
2022-12-17T19:36:35.577Z,65.38
2022-12-17T19:39:05.115Z,65.81
2022-12-17T19:41:32.869Z,66.38
2022-12-17T19:44:01.578Z,65.83
2022-12-17T19:46:29.662Z,66.43
2022-12-17T19:48:57.373Z,66.34
2022-12-17T19:51:26.542Z,66.25
2022-12-17T19:53:54.663Z,66.20
2022-12-17T19:56:27.213Z,66.58
2022-12-17T19:59:06.822Z,66.85
2022-12-17T20:01:41.303Z,67.58
2022-12-17T20:04:07.844Z,66.60
2022-12-17T20:06:35.221Z,67.58
2022-12-17T20:09:03.520Z,67.17
2022-12-17T20:11:32.798Z,67.04
2022-12-17T20:14:09.022Z,66.83
2022-12-17T20:16:38.901Z,67.40
2022-12-17T20:19:07.521Z,67.50
2022-12-17T20:21:34.053Z,68.29
2022-12-17T20:24:00.466Z,67.82
2022-12-17T20:26:26.822Z,68.22
2022-12-17T20:28:55.014Z,68.21
2022-12-17T20:31:21.538Z,67.93
2022-12-17T20:33:48.150Z,67.96
2022-12-17T20:36:17.344Z,68.16
2022-12-17T20:38:44.292Z,67.96
2022-12-17T20:41:21.512Z,68.31
2022-12-17T20:43:48.708Z,68.17
2022-12-17T20:46:15.471Z,68.16
2022-12-17T20:48:43.407Z,68.01
2022-12-17T20:51:13.556Z,67.52
2022-12-17T20:53:40.361Z,67.48
2022-12-17T20:56:09.941Z,67.55
2022-12-17T20:58:38.484Z,67.42
2022-12-17T21:01:18.483Z,67.96
2022-12-17T21:03:45.283Z,67.43
2022-12-17T21:06:17.870Z,67.15
2022-12-17T21:08:50.209Z,67.38
2022-12-17T21:11:23.182Z,67.03
2022-12-17T21:13:49.674Z,67.02
2022-12-17T21:16:21.822Z,67.33
2022-12-17T21:18:48.838Z,67.68
2022-12-17T21:21:18.596Z,67.10
2022-12-17T21:23:47.231Z,67.24
2022-12-17T21:26:14.889Z,67.17
2022-12-17T21:28:44.996Z,66.87
2022-12-17T21:31:23.307Z,67.00
2022-12-17T21:33:51.764Z,67.41
2022-12-17T21:36:20.532Z,67.75
2022-12-17T21:38:47.704Z,67.45
2022-12-17T21:41:21.131Z,67.13
2022-12-17T21:43:47.818Z,67.45
2022-12-17T21:46:14.722Z,67.09
2022-12-17T21:48:42.872Z,67.45
2022-12-17T21:51:11.393Z,67.30
2022-12-17T21:53:41.987Z,67.97
2022-12-17T21:56:11.446Z,68.08
2022-12-17T21:58:38.654Z,67.89
2022-12-17T22:01:19.067Z,67.62
2022-12-17T22:03:50.233Z,67.73
2022-12-17T22:06:23.295Z,68.02
2022-12-17T22:08:53.355Z,67.47
2022-12-17T22:11:25.094Z,67.72
2022-12-17T22:14:15.548Z,67.78
2022-12-17T22:16:49.294Z,68.05
2022-12-17T22:19:22.188Z,67.58
2022-12-17T22:21:50.904Z,67.45
2022-12-17T22:24:22.479Z,67.36
2022-12-17T22:26:48.971Z,67.23
2022-12-17T22:29:36.211Z,67.55
2022-12-17T22:32:20.922Z,67.51
2022-12-17T22:36:37.001Z,67.39
2022-12-17T22:40:21.345Z,67.82
2022-12-17T22:44:35.118Z,67.79
2022-12-17T22:44:35.298Z,67.71
2022-12-17T22:46:15.485Z,67.71
2022-12-17T22:48:41.850Z,67.39
2022-12-17T22:51:12.169Z,67.62
2022-12-17T22:53:40.366Z,67.61
2022-12-17T22:56:16.100Z,68.09
2022-12-17T22:58:53.959Z,67.78
2022-12-17T23:01:23.198Z,67.61
2022-12-17T23:03:54.143Z,67.39
2022-12-17T23:06:20.944Z,67.17
2022-12-17T23:08:47.381Z,67.39
2022-12-17T23:11:24.833Z,67.07
2022-12-17T23:13:52.345Z,67.17
2022-12-17T23:16:18.993Z,67.40
2022-12-17T23:18:47.161Z,67.33
2022-12-17T23:21:17.029Z,67.27
2022-12-17T23:23:44.079Z,67.50
2022-12-17T23:26:19.608Z,67.66
2022-12-17T23:28:46.033Z,67.93
2022-12-17T23:31:18.460Z,67.76
2022-12-17T23:33:45.559Z,67.56
2022-12-17T23:36:14.225Z,67.47
2022-12-17T23:38:42.001Z,67.50
2022-12-17T23:41:13.786Z,67.40
2022-12-17T23:43:40.647Z,67.62
2022-12-17T23:46:08.128Z,67.16
2022-12-17T23:48:42.053Z,67.00
2022-12-17T23:51:13.196Z,67.05
2022-12-17T23:53:40.155Z,66.92
2022-12-17T23:56:17.252Z,66.99
2022-12-17T23:58:45.442Z,67.40
